createdAt,value
2019-05-16T00:00:33.517Z,45.8
2019-05-16T00:02:46.157Z,46.6
2019-05-16T00:04:58.792Z,46
2019-05-16T00:06:05.090Z,45.9
2019-05-16T00:07:11.374Z,46.5
2019-05-16T00:09:23.967Z,46.9
2019-05-16T00:11:36.578Z,46.9
2019-05-16T00:13:49.266Z,47.4
2019-05-16T00:14:55.537Z,48
2019-05-16T00:16:01.852Z,48.4
2019-05-16T00:18:14.437Z,47.8
2019-05-16T00:20:27.052Z,47.6
2019-05-16T00:22:39.675Z,48.3
2019-05-16T00:24:52.346Z,49
2019-05-16T00:27:04.912Z,48.7
2019-05-16T00:28:11.030Z,48.7
2019-05-16T00:29:17.590Z,48
2019-05-16T00:31:30.161Z,48.1
2019-05-16T00:35:55.394Z,48.3
2019-05-16T00:37:01.710Z,48.7
2019-05-16T00:40:20.624Z,47.7
2019-05-16T00:42:33.278Z,48.5
2019-05-16T00:44:45.086Z,48
2019-05-16T00:49:11.012Z,48.2
2019-05-16T00:50:17.419Z,47.4
2019-05-16T00:51:23.827Z,46.9
2019-05-16T00:53:36.387Z,47.4
2019-05-16T00:54:42.680Z,46.9
2019-05-16T00:55:48.990Z,47.1
2019-05-16T00:58:01.549Z,48.7
2019-05-16T00:59:07.091Z,47.6
2019-05-16T01:02:26.863Z,47.4
2019-05-16T01:04:39.048Z,48.1
2019-05-16T01:06:52.080Z,48
2019-05-16T01:09:04.636Z,48.2
2019-05-16T01:11:17.322Z,48.3
2019-05-16T01:12:23.629Z,48.2
2019-05-16T01:13:29.943Z,48.9
2019-05-16T01:15:42.559Z,48.6
2019-05-16T01:17:55.162Z,50
2019-05-16T01:20:07.760Z,49.2
2019-05-16T01:21:14.080Z,49.1
2019-05-16T01:23:26.684Z,49.7
2019-05-16T01:24:32.996Z,49.7
2019-05-16T01:26:45.588Z,48.6
2019-05-16T01:27:51.892Z,48.3
2019-05-16T01:31:10.869Z,48.2
2019-05-16T01:34:29.799Z,49.9
2019-05-16T01:35:36.106Z,49.5
2019-05-16T01:40:01.343Z,50.1
2019-05-16T01:43:20.284Z,50.3
2019-05-16T01:44:26.058Z,49.8
2019-05-16T01:46:39.170Z,49.3
2019-05-16T01:53:17.001Z,49.3
2019-05-16T01:55:29.067Z,49.4
2019-05-16T01:56:35.922Z,50.1
2019-05-16T01:57:42.292Z,50.3
2019-05-16T01:59:54.857Z,49.5
2019-05-16T02:04:20.108Z,50.4
2019-05-16T02:05:26.411Z,50.4
2019-05-16T02:06:32.765Z,50.1
2019-05-16T02:13:10.622Z,50.2
2019-05-16T02:15:23.198Z,50
2019-05-16T02:17:35.793Z,50.6
2019-05-16T02:18:42.009Z,50.8
2019-05-16T02:19:48.043Z,51.4
2019-05-16T02:24:13.719Z,51.2
2019-05-16T02:26:26.320Z,51.8
2019-05-16T02:27:32.060Z,51.2
2019-05-16T02:28:38.898Z,51
2019-05-16T02:33:04.121Z,50.9
2019-05-16T02:35:16.785Z,50.8
2019-05-16T02:37:29.403Z,51.4
2019-05-16T02:39:41.992Z,51.5
2019-05-16T02:40:48.313Z,51.7
2019-05-16T02:44:07.243Z,51.1
2019-05-16T02:45:13.542Z,50.7
2019-05-16T02:48:32.445Z,51.1
2019-05-16T02:49:38.815Z,50.6
2019-05-16T02:50:45.103Z,50.7
2019-05-16T02:51:51.401Z,51
2019-05-16T02:52:57.738Z,50.5
2019-05-16T02:56:16.063Z,50.7
2019-05-16T02:59:35.534Z,50.7
2019-05-16T03:01:48.202Z,50.9
2019-05-16T03:02:54.050Z,50.7
2019-05-16T03:04:00.799Z,51.5
2019-05-16T03:07:19.740Z,51.4
2019-05-16T03:08:26.042Z,51.7
2019-05-16T03:10:38.632Z,51.3
2019-05-16T03:11:44.919Z,51.4
2019-05-16T03:15:03.885Z,51.5
2019-05-16T03:21:41.782Z,51.9
2019-05-16T03:23:54.317Z,51.7
2019-05-16T03:25:00.696Z,52.1
2019-05-16T03:26:06.095Z,51.8
2019-05-16T03:28:19.601Z,51.5
2019-05-16T03:30:32.219Z,50.7
2019-05-16T03:32:44.821Z,50.9
2019-05-16T03:33:51.017Z,50.9
2019-05-16T03:34:57.432Z,51.4
2019-05-16T03:37:10.043Z,50.7
2019-05-16T03:39:22.663Z,51.1
2019-05-16T03:41:35.295Z,51.4
2019-05-16T03:46:00.550Z,51.8
2019-05-16T03:47:06.857Z,51.7
2019-05-16T03:48:13.013Z,51.5
2019-05-16T03:50:25.807Z,51.4
2019-05-16T03:52:38.382Z,52.1
2019-05-16T03:55:57.343Z,52.5
2019-05-16T03:59:16.245Z,52.2
2019-05-16T04:03:41.466Z,52.4
2019-05-16T04:05:54.124Z,53.2
2019-05-16T04:09:13.040Z,53.3
2019-05-16T04:10:19.296Z,54
2019-05-16T04:12:31.972Z,53.9
2019-05-16T04:13:38.282Z,53.6
2019-05-16T04:14:44.531Z,53.3
2019-05-16T04:18:03.052Z,53.2
2019-05-16T04:21:22.394Z,53
2019-05-16T04:23:35.043Z,53.7
2019-05-16T04:30:12.864Z,53
2019-05-16T04:32:25.525Z,53.2
2019-05-16T04:34:38.013Z,53
2019-05-16T04:35:44.409Z,53.2
2019-05-16T04:39:03.039Z,52.4
2019-05-16T04:40:09.707Z,52.9
2019-05-16T04:45:41.236Z,51.9
2019-05-16T04:50:06.419Z,53.8
2019-05-16T04:52:19.009Z,52.6
2019-05-16T04:53:25.038Z,52.6
2019-05-16T04:54:31.652Z,52.4
2019-05-16T04:55:38.027Z,53.2
2019-05-16T04:56:44.329Z,53.8
2019-05-16T05:01:09.524Z,51.4
2019-05-16T05:02:15.818Z,50.5
2019-05-16T05:05:34.795Z,51.5
2019-05-16T05:07:47.442Z,50.9
2019-05-16T05:12:12.006Z,52
2019-05-16T05:14:25.002Z,51.4
2019-05-16T05:15:31.549Z,51.1
2019-05-16T05:16:37.847Z,50.9
2019-05-16T05:18:50.496Z,51.1
2019-05-16T05:23:15.727Z,50.6
2019-05-16T05:24:22.027Z,50.4
2019-05-16T05:25:28.309Z,50.5
2019-05-16T05:29:53.559Z,50.2
2019-05-16T05:34:18.772Z,50.4
2019-05-16T05:36:31.450Z,50.6
2019-05-16T05:37:37.762Z,50.4
2019-05-16T05:38:44.000Z,50.4
2019-05-16T05:39:50.313Z,51.6
2019-05-16T05:40:56.678Z,51.7
2019-05-16T05:42:02.998Z,51.1
2019-05-16T05:45:21.876Z,49.8
2019-05-16T05:46:28.168Z,50.8
2019-05-16T05:47:34.467Z,51.2
2019-05-16T05:50:53.396Z,50.2
2019-05-16T05:51:59.724Z,50.4
2019-05-16T05:58:37.592Z,49
2019-05-16T05:59:43.910Z,48.8
2019-05-16T06:03:02.824Z,48.8
2019-05-16T06:04:09.168Z,49.1
2019-05-16T06:05:15.435Z,48.9
2019-05-16T06:07:28.054Z,48.9
2019-05-16T06:08:34.365Z,49.5
2019-05-16T06:09:40.656Z,48.3
2019-05-16T06:12:59.616Z,48.2
2019-05-16T06:14:05.907Z,48.8
2019-05-16T06:16:18.549Z,48.5
2019-05-16T06:18:31.174Z,49.5
2019-05-16T06:20:43.778Z,49.5
2019-05-16T06:21:50.064Z,48.3
2019-05-16T06:26:15.338Z,48.3
2019-05-16T06:29:34.253Z,47.9
2019-05-16T06:30:40.053Z,48.3
2019-05-16T06:31:46.879Z,48.9
2019-05-16T06:35:05.794Z,49
2019-05-16T06:36:12.076Z,49.1
2019-05-16T06:40:37.337Z,49
2019-05-16T06:43:56.292Z,48.5
2019-05-16T06:47:15.181Z,48.9
2019-05-16T06:49:27.792Z,49.6
2019-05-16T06:51:40.419Z,49.1
2019-05-16T06:52:46.725Z,48.5
2019-05-16T06:53:53.024Z,48.9
2019-05-16T06:57:11.952Z,50
2019-05-16T06:58:18.247Z,49.6
2019-05-16T06:59:24.598Z,49.8
2019-05-16T07:00:30.907Z,49.8
2019-05-16T07:02:43.523Z,49.4
2019-05-16T07:04:56.134Z,50.1
2019-05-16T07:06:02.415Z,48.9
2019-05-16T07:07:08.734Z,49
2019-05-16T07:08:15.037Z,50.1
2019-05-16T07:11:33.933Z,49.4
2019-05-16T07:13:46.546Z,49.8
2019-05-16T07:14:52.876Z,49.4
2019-05-16T07:15:59.019Z,49
2019-05-16T07:18:11.833Z,49.1
2019-05-16T07:28:08.605Z,47.8
2019-05-16T07:31:27.537Z,46.5
2019-05-16T07:33:40.142Z,46.2
2019-05-16T07:36:59.049Z,45.7
2019-05-16T07:38:05.364Z,45.8
2019-05-16T07:39:11.693Z,45.6
2019-05-16T07:42:30.617Z,44.5
2019-05-16T07:44:43.216Z,46.6
2019-05-16T07:46:55.838Z,45.2
2019-05-16T07:50:14.772Z,45.6
2019-05-16T07:51:21.103Z,45
2019-05-16T07:52:27.377Z,44.6
2019-05-16T07:53:33.685Z,44.9
2019-05-16T07:54:40.009Z,45.2
2019-05-16T07:55:46.323Z,44.9
2019-05-16T07:57:58.896Z,44.4
2019-05-16T07:59:05.258Z,44.5
2019-05-16T08:00:11.522Z,44.3
2019-05-16T08:01:17.816Z,45.1
2019-05-16T08:02:24.186Z,44.1
2019-05-16T08:04:36.007Z,44.6
2019-05-16T08:06:49.360Z,45.4
2019-05-16T08:09:02.058Z,45.4
2019-05-16T08:11:14.653Z,43.9
2019-05-16T08:12:21.140Z,43.6
2019-05-16T08:14:33.560Z,45.4
2019-05-16T08:15:39.847Z,44.9
2019-05-16T08:17:52.524Z,42.4
2019-05-16T08:21:11.416Z,42.4
2019-05-16T08:24:30.356Z,42.7
2019-05-16T08:25:37.058Z,42.1
2019-05-16T08:26:42.920Z,41.3
2019-05-16T08:27:49.226Z,41.3
2019-05-16T08:28:55.592Z,41.5
2019-05-16T08:31:08.260Z,41.9
2019-05-16T08:33:20.821Z,42.9
2019-05-16T08:34:27.007Z,41.3
2019-05-16T08:35:33.455Z,41.1
2019-05-16T08:38:52.377Z,43.6
2019-05-16T08:39:58.796Z,41.7
2019-05-16T08:43:17.611Z,41.4
2019-05-16T08:44:23.903Z,40.1
2019-05-16T08:46:36.536Z,39.6
2019-05-16T08:47:42.843Z,39.6
2019-05-16T08:51:01.756Z,41.4
2019-05-16T08:53:14.361Z,40.5
2019-05-16T08:55:27.024Z,40
2019-05-16T08:56:33.290Z,40
2019-05-16T08:57:39.595Z,39.8
2019-05-16T08:59:52.023Z,42.7
2019-05-16T09:02:04.849Z,42.7
2019-05-16T09:05:23.813Z,41.4
2019-05-16T09:06:30.119Z,41.6
2019-05-16T09:08:42.734Z,40.9
2019-05-16T09:09:49.033Z,41.6
2019-05-16T09:13:07.966Z,42
2019-05-16T09:15:20.593Z,41.1
2019-05-16T09:17:33.185Z,42
2019-05-16T09:18:39.489Z,41.9
2019-05-16T09:19:45.844Z,43
2019-05-16T09:21:58.418Z,42.6
2019-05-16T09:23:04.721Z,42.8
2019-05-16T09:24:11.095Z,42.8
2019-05-16T09:25:17.041Z,42.4
2019-05-16T09:27:30.026Z,41.7
2019-05-16T09:28:36.339Z,42.2
2019-05-16T09:31:55.212Z,42.2
2019-05-16T09:33:01.523Z,41.8
2019-05-16T09:35:14.199Z,41.8
2019-05-16T09:37:26.076Z,42.3
2019-05-16T09:38:33.076Z,42
2019-05-16T09:40:45.736Z,42.3
2019-05-16T09:42:58.033Z,43.8
2019-05-16T09:44:04.640Z,43.3
2019-05-16T09:46:17.255Z,42.7
2019-05-16T09:49:36.198Z,44.1
2019-05-16T09:50:42.505Z,44.3
2019-05-16T09:52:55.015Z,43.3
2019-05-16T09:54:01.406Z,43.1
2019-05-16T10:26:04.482Z,38.8
2019-05-16T10:28:17.002Z,38.5
2019-05-16T10:30:29.066Z,39.8
2019-05-16T10:32:42.278Z,37.6
2019-05-16T10:33:48.587Z,37.1
2019-05-16T10:37:07.490Z,36.2
2019-05-16T10:38:13.933Z,36.4
2019-05-16T10:41:32.751Z,36.3
2019-05-16T10:43:45.410Z,36.8
2019-05-16T10:44:51.704Z,36.8
2019-05-16T10:47:04.031Z,37.7
2019-05-16T10:50:23.030Z,35.6
2019-05-16T10:51:29.601Z,35.5
2019-05-16T10:52:35.890Z,36.2
2019-05-16T10:54:48.606Z,35.2
2019-05-16T10:55:54.082Z,36
2019-05-16T10:57:01.128Z,36.8
2019-05-16T10:59:13.697Z,37.5
2019-05-16T11:00:20.026Z,37
2019-05-16T11:01:26.362Z,37.1
2019-05-16T11:05:51.626Z,37.3
2019-05-16T11:09:10.528Z,36.4
2019-05-16T11:10:16.846Z,35.4
2019-05-16T11:12:29.799Z,34.7
2019-05-16T11:13:35.772Z,32.6
2019-05-16T11:14:42.057Z,33.1
2019-05-16T11:16:54.670Z,33.5
2019-05-16T11:18:01.026Z,33.3
2019-05-16T11:23:32.529Z,32.1
2019-05-16T11:24:38.876Z,32.9
2019-05-16T11:27:57.833Z,31.4
2019-05-16T11:30:10.402Z,32
2019-05-16T11:31:16.721Z,31.9
2019-05-16T11:32:23.003Z,32
2019-05-16T11:34:35.684Z,32
2019-05-16T11:36:48.300Z,31.6
2019-05-16T11:39:00.952Z,31.6
2019-05-16T11:40:07.185Z,31.7
2019-05-16T11:41:13.562Z,31.4
2019-05-16T11:45:38.799Z,29.4
2019-05-16T11:47:51.398Z,30.3
2019-05-16T11:51:10.033Z,30.6
2019-05-16T11:52:16.884Z,30.7
2019-05-16T11:53:22.952Z,29.4
2019-05-16T11:54:29.374Z,29.1
2019-05-16T11:57:48.192Z,27
2019-05-16T11:58:55.018Z,28.7
2019-05-16T12:01:07.170Z,28.1
2019-05-16T12:02:13.471Z,29.2
2019-05-16T12:06:38.706Z,29.5
2019-05-16T12:07:44.984Z,29.2
2019-05-16T12:08:51.293Z,30.8
2019-05-16T12:09:57.649Z,30.9
2019-05-16T12:13:16.005Z,31.5
2019-05-16T12:14:22.832Z,31.3
2019-05-16T12:15:29.191Z,32.4
2019-05-16T12:18:48.086Z,33
2019-05-16T12:19:54.393Z,32.7
2019-05-16T12:21:00.730Z,31.5
2019-05-16T12:23:13.378Z,33.1
2019-05-16T12:24:19.647Z,32
2019-05-16T12:28:44.905Z,31.4
2019-05-16T12:29:51.170Z,30.9
2019-05-16T12:30:57.539Z,32
2019-05-16T12:36:29.047Z,31.7
2019-05-16T12:37:35.365Z,31.2
2019-05-16T12:38:41.686Z,31.5
2019-05-16T12:39:47.986Z,31.2
2019-05-16T12:42:00.622Z,32.1
2019-05-16T12:45:19.558Z,32.7
2019-05-16T12:46:25.851Z,32.1
2019-05-16T12:47:32.174Z,31.3
2019-05-16T12:49:44.822Z,33
2019-05-16T12:56:22.663Z,32.4
2019-05-16T12:57:28.973Z,32.4
2019-05-16T12:59:41.568Z,33
2019-05-16T13:00:47.873Z,33.7
2019-05-16T13:03:00.689Z,34.8
2019-05-16T13:04:06.855Z,33.8
2019-05-16T13:05:13.161Z,34.6
2019-05-16T13:07:25.784Z,35.2
2019-05-16T13:13:05.077Z,36.7
2019-05-16T13:14:03.669Z,36.5
2019-05-16T13:16:16.218Z,37.5
2019-05-16T13:19:35.214Z,38.6
2019-05-16T13:21:47.833Z,37.7
2019-05-16T13:25:06.773Z,39.7
2019-05-16T13:29:31.953Z,39.9
2019-05-16T13:30:38.331Z,40.7
2019-05-16T13:31:44.588Z,40
2019-05-16T13:33:57.249Z,39.5
2019-05-16T13:35:03.056Z,40.2
2019-05-16T13:36:09.858Z,40.3
2019-05-16T13:38:22.480Z,41.5
2019-05-16T13:40:35.072Z,40.6
2019-05-16T13:41:41.421Z,41.5
2019-05-16T13:42:47.714Z,41.5
2019-05-16T13:43:54.021Z,40
2019-05-16T13:45:00.323Z,40.8
2019-05-16T13:46:06.611Z,39.8
2019-05-16T13:47:12.948Z,39.3
2019-05-16T13:48:19.261Z,39.4
2019-05-16T13:49:25.566Z,40.6
2019-05-16T13:51:38.185Z,40
2019-05-16T13:52:44.545Z,40.7
2019-05-16T13:53:50.844Z,40
2019-05-16T13:56:03.451Z,40.9
2019-05-16T13:57:09.763Z,40.7
2019-05-16T13:58:16.071Z,41.5
2019-05-16T14:02:41.335Z,41.5
2019-05-16T14:04:53.093Z,40.7
2019-05-16T14:06:00.252Z,41.1
2019-05-16T14:10:25.469Z,42.1
2019-05-16T14:12:38.096Z,41.4
2019-05-16T14:13:44.430Z,41.9
2019-05-16T14:14:50.724Z,42.2
2019-05-16T14:18:09.687Z,42.8
2019-05-16T14:20:22.299Z,43.1
2019-05-16T14:22:34.909Z,42.9
2019-05-16T14:28:06.448Z,44.8
2019-05-16T14:33:37.980Z,44
2019-05-16T14:35:50.645Z,44.4
2019-05-16T14:36:56.933Z,43.8
2019-05-16T14:40:15.858Z,44.1
2019-05-16T14:42:28.499Z,43.9
2019-05-16T14:44:41.088Z,44.6
2019-05-16T14:46:53.704Z,44.8
2019-05-16T14:48:00.020Z,44.8
2019-05-16T14:49:06.379Z,45
2019-05-16T14:50:12.629Z,45.5
2019-05-16T14:51:18.939Z,44.8
2019-05-16T14:57:56.829Z,46
2019-05-16T14:59:03.146Z,45.5
2019-05-16T15:01:15.743Z,46
2019-05-16T15:02:22.062Z,46.1
2019-05-16T15:03:28.359Z,46.9
2019-05-16T15:04:34.684Z,46.6
2019-05-16T15:05:41.043Z,46.5
2019-05-16T15:10:06.248Z,47.5
2019-05-16T15:11:12.570Z,47.8
2019-05-16T15:12:18.871Z,47.5
2019-05-16T15:13:25.174Z,48.1
2019-05-16T15:15:37.838Z,47.7
2019-05-16T15:16:44.142Z,47.8
2019-05-16T15:20:03.021Z,47.5
2019-05-16T15:21:09.347Z,48.3
2019-05-16T15:22:15.064Z,47.3
2019-05-16T15:24:28.283Z,47.5
2019-05-16T15:26:40.905Z,47.3
2019-05-16T15:31:06.116Z,47.8
2019-05-16T15:34:25.054Z,48
2019-05-16T15:35:31.366Z,47.6
2019-05-16T15:36:37.678Z,47.7
2019-05-16T15:37:44.016Z,48.5
2019-05-16T15:41:02.964Z,48.1
2019-05-16T15:43:15.578Z,47.9
2019-05-16T15:44:21.877Z,47.7
2019-05-16T15:45:28.175Z,47.4
2019-05-16T15:47:40.811Z,48.6
2019-05-16T15:48:47.128Z,47.9
2019-05-16T15:49:53.425Z,48.7
2019-05-16T15:53:12.382Z,48.1
2019-05-16T15:54:18.687Z,47.8
2019-05-16T15:55:24.979Z,48.3
2019-05-16T15:56:31.002Z,48.7
2019-05-16T15:57:37.594Z,49.7
2019-05-16T15:58:43.883Z,50.6
2019-05-16T15:59:50.193Z,48.5
2019-05-16T16:05:21.774Z,49
2019-05-16T16:08:40.711Z,49.5
2019-05-16T16:10:53.297Z,49.5
2019-05-16T16:15:18.549Z,49.9
2019-05-16T16:17:31.213Z,50
2019-05-16T16:18:37.489Z,51.1
2019-05-16T16:20:50.111Z,50.2
2019-05-16T16:23:02.729Z,50.8
2019-05-16T16:24:09.054Z,50.6
2019-05-16T16:27:28.006Z,49.9
2019-05-16T16:30:46.890Z,50.4
2019-05-16T16:31:53.267Z,50.7
2019-05-16T16:37:24.758Z,50.2
2019-05-16T16:38:31.113Z,50.3
2019-05-16T16:40:43.741Z,50.9
2019-05-16T16:41:50.060Z,50.3
2019-05-16T16:44:02.623Z,50.8
2019-05-16T16:45:08.970Z,50.4
2019-05-16T16:49:34.226Z,49.7
2019-05-16T16:50:40.512Z,49.8
2019-05-16T16:52:53.014Z,49.9
2019-05-16T16:53:59.458Z,50
2019-05-16T16:55:05.072Z,50
2019-05-16T16:57:18.380Z,50.1
2019-05-16T16:59:30.961Z,51.1
2019-05-16T17:01:43.064Z,51
2019-05-16T17:02:49.094Z,51.2
2019-05-16T17:03:56.290Z,51.1
2019-05-16T17:07:15.017Z,51.2
2019-05-16T17:08:21.473Z,51.7
2019-05-16T17:10:34.111Z,50.5
2019-05-16T17:11:40.435Z,50.9
2019-05-16T17:12:46.745Z,50.8
2019-05-16T17:14:59.318Z,51.1
2019-05-16T17:17:11.936Z,50.8
2019-05-16T17:18:18.298Z,51
2019-05-16T17:19:24.058Z,50.8
2019-05-16T17:24:56.151Z,51.2
2019-05-16T17:26:02.451Z,51
2019-05-16T17:27:08.765Z,50.8
2019-05-16T17:33:46.639Z,51.1
2019-05-16T17:34:52.911Z,51.1
2019-05-16T17:37:05.059Z,51.5
2019-05-16T17:39:18.197Z,51.1
2019-05-16T17:41:30.772Z,51.9
2019-05-16T17:43:43.394Z,51.1
2019-05-16T17:47:02.338Z,51
2019-05-16T17:48:08.661Z,51
2019-05-16T17:50:21.268Z,52
2019-05-16T17:51:27.566Z,51.4
2019-05-16T17:52:33.874Z,50.8
2019-05-16T17:54:46.543Z,51.2
2019-05-16T17:55:52.856Z,50.8
2019-05-16T17:56:59.155Z,50.7
2019-05-16T18:00:18.009Z,51.5
2019-05-16T18:02:30.716Z,51
2019-05-16T18:03:37.017Z,50.5
2019-05-16T18:05:49.626Z,51.8
2019-05-16T18:08:02.222Z,51
2019-05-16T18:09:08.059Z,50.1
2019-05-16T18:10:14.896Z,50.4
2019-05-16T18:12:27.049Z,50
2019-05-16T18:14:40.074Z,50.2
2019-05-16T18:15:46.424Z,50.1
2019-05-16T18:17:59.033Z,50.2
2019-05-16T18:19:05.350Z,49.9
2019-05-16T18:21:17.961Z,49.7
2019-05-16T18:23:30.567Z,49.9
2019-05-16T18:24:36.090Z,49.9
2019-05-16T18:25:43.208Z,50.3
2019-05-16T18:27:55.810Z,49.7
2019-05-16T18:31:14.724Z,49.9
2019-05-16T18:32:21.002Z,50.1
2019-05-16T18:33:27.032Z,50.5
2019-05-16T18:34:33.668Z,50.4
2019-05-16T18:36:46.253Z,50.4
2019-05-16T18:37:52.585Z,50.6
2019-05-16T18:38:58.915Z,50.7
2019-05-16T18:40:05.213Z,50.6
2019-05-16T18:41:11.529Z,50.8
2019-05-16T18:42:17.820Z,51.3
2019-05-16T18:43:24.149Z,51.1
2019-05-16T18:44:30.397Z,51.3
2019-05-16T18:47:49.392Z,51.7
2019-05-16T18:50:01.096Z,51.6
2019-05-16T18:52:14.628Z,52.1
2019-05-16T18:53:20.866Z,52.2
2019-05-16T18:54:27.210Z,52.5
2019-05-16T18:56:39.850Z,52.3
2019-05-16T18:58:52.456Z,52.5
2019-05-16T18:59:58.753Z,52.3
2019-05-16T19:02:11.376Z,52.1
2019-05-16T19:05:30.264Z,52.5
2019-05-16T19:07:42.885Z,52.5
2019-05-16T19:09:55.515Z,53.5
2019-05-16T19:12:08.160Z,53.2
2019-05-16T19:13:14.047Z,53.5
2019-05-16T19:15:27.004Z,53.6
2019-05-16T19:16:33.351Z,53.6
2019-05-16T19:18:46.034Z,53.7
2019-05-16T19:20:58.621Z,53.6
2019-05-16T19:22:04.905Z,53.8
2019-05-16T19:24:17.536Z,54.4
2019-05-16T19:25:23.884Z,54.7
2019-05-16T19:27:36.485Z,54
2019-05-16T19:29:49.072Z,53.9
2019-05-16T19:32:01.721Z,53.9
2019-05-16T19:34:14.295Z,54
2019-05-16T19:36:26.923Z,54.4
2019-05-16T19:37:33.215Z,54.5
2019-05-16T19:38:39.585Z,54.9
2019-05-16T19:40:52.177Z,54.1
2019-05-16T19:41:58.454Z,54
2019-05-16T19:43:04.763Z,54
2019-05-16T19:45:17.418Z,54.2
2019-05-16T19:46:23.755Z,53.8
2019-05-16T19:49:42.068Z,54.6
2019-05-16T19:51:55.298Z,54.5
2019-05-16T19:54:07.885Z,54.5
2019-05-16T19:56:20.469Z,55.1
2019-05-16T19:59:39.430Z,55.6
2019-05-16T20:00:45.748Z,55.6
2019-05-16T20:02:58.344Z,55.1
2019-05-16T20:07:23.554Z,56.2
2019-05-16T20:08:29.869Z,56.3
2019-05-16T20:16:14.079Z,57.6
2019-05-16T20:18:26.640Z,59.6
2019-05-16T20:20:39.331Z,60.7
2019-05-16T20:21:45.626Z,60.7
2019-05-16T20:26:10.848Z,64.9
2019-05-16T20:27:17.159Z,65.8
2019-05-16T20:28:23.471Z,66.5
2019-05-16T20:29:29.740Z,67
2019-05-16T20:30:36.003Z,68
2019-05-16T20:40:32.859Z,70.6
2019-05-16T20:43:51.783Z,70.3
2019-05-16T20:48:17.033Z,71.2
2019-05-16T20:49:23.323Z,71.1
2019-05-16T20:51:35.913Z,73.2
2019-05-16T20:52:42.223Z,73.2
2019-05-16T21:02:39.045Z,72.1
2019-05-16T21:05:57.975Z,72.9
2019-05-16T21:09:16.859Z,71.9
2019-05-16T21:13:42.123Z,72.4
2019-05-16T21:14:48.417Z,72.2
2019-05-16T21:26:57.837Z,73
2019-05-16T21:28:04.156Z,73
2019-05-16T21:33:35.706Z,73.1
2019-05-16T21:35:48.310Z,72.9
2019-05-16T21:36:54.626Z,73.1
2019-05-16T21:42:26.148Z,72.5
2019-05-16T21:50:10.300Z,73.3
2019-05-16T21:53:29.022Z,73.6
2019-05-16T21:55:41.855Z,74.5
2019-05-16T21:59:00.800Z,74.3
2019-05-16T22:02:19.744Z,74.3
2019-05-16T22:06:44.948Z,75.1
2019-05-16T22:11:10.179Z,75.7
2019-05-16T22:12:16.450Z,75.7
2019-05-16T22:15:35.442Z,75.7
2019-05-16T22:17:48.063Z,75.9
2019-05-16T22:21:06.966Z,76.1
2019-05-16T22:22:13.280Z,76.7
2019-05-16T22:28:51.154Z,77.2
2019-05-16T22:34:22.069Z,77.9
2019-05-16T22:37:41.614Z,77.5
2019-05-16T22:42:06.847Z,78
2019-05-16T22:43:13.163Z,77.4
2019-05-16T22:44:19.454Z,77.6
2019-05-16T22:46:32.035Z,78.2
2019-05-16T22:48:44.064Z,78.2
2019-05-16T22:50:57.279Z,78.5
2019-05-16T22:55:22.550Z,78.4
2019-05-16T22:56:28.830Z,78.7
2019-05-16T22:57:35.161Z,78.6
2019-05-16T22:59:47.079Z,78.8
2019-05-16T23:00:54.105Z,78.8
2019-05-16T23:03:06.655Z,79.2
2019-05-16T23:04:12.982Z,78.6
2019-05-16T23:05:19.310Z,79.2
2019-05-16T23:06:25.636Z,78.7
2019-05-16T23:08:38.200Z,78.4
2019-05-16T23:10:50.082Z,78.6
2019-05-16T23:13:03.445Z,78.5
2019-05-16T23:15:16.096Z,77.9
2019-05-16T23:17:28.727Z,78.2
2019-05-16T23:18:35.027Z,78.8
2019-05-16T23:21:53.931Z,78.8
2019-05-16T23:24:06.577Z,79.6
2019-05-16T23:26:19.188Z,78.6
2019-05-16T23:27:25.494Z,79.1
2019-05-16T23:28:31.813Z,79.4
2019-05-16T23:30:44.378Z,80
2019-05-16T23:32:56.988Z,79.8
2019-05-16T23:35:09.673Z,79.1
2019-05-16T23:37:22.248Z,79.5
2019-05-16T23:39:34.881Z,79.5
2019-05-16T23:40:41.203Z,79.5
2019-05-16T23:48:25.353Z,78.9
2019-05-16T23:49:31.662Z,78.9
2019-05-16T23:50:37.998Z,78.9
2019-05-16T23:52:50.542Z,78.9
2019-05-16T23:55:03.022Z,78.6
2019-05-16T23:57:15.795Z,79
2019-05-16T23:59:28.448Z,79.3
